sensor_id;sensor_type;location;lat;lon;timestamp;P1;durP1;ratioP1;P2;durP2;ratioP2
870;SDS011;422;51.280;7.236;2023-05-10T00:01:49;6.67;;;5.10;;
870;SDS011;422;51.280;7.236;2023-05-10T00:04:16;5.40;;;4.90;;
870;SDS011;422;51.280;7.236;2023-05-10T00:06:45;4.60;;;4.10;;
870;SDS011;422;51.280;7.236;2023-05-10T00:09:12;5.40;;;4.53;;
870;SDS011;422;51.280;7.236;2023-05-10T00:11:39;7.03;;;6.33;;
870;SDS011;422;51.280;7.236;2023-05-10T00:14:11;6.37;;;5.77;;
870;SDS011;422;51.280;7.236;2023-05-10T00:16:38;9.00;;;6.30;;
870;SDS011;422;51.280;7.236;2023-05-10T00:19:06;8.40;;;6.30;;
870;SDS011;422;51.280;7.236;2023-05-10T00:21:33;8.37;;;7.07;;
870;SDS011;422;51.280;7.236;2023-05-10T00:24:01;7.97;;;6.77;;
870;SDS011;422;51.280;7.236;2023-05-10T00:26:29;7.80;;;6.77;;
870;SDS011;422;51.280;7.236;2023-05-10T00:28:56;7.83;;;6.80;;
870;SDS011;422;51.280;7.236;2023-05-10T00:31:24;8.00;;;7.03;;
870;SDS011;422;51.280;7.236;2023-05-10T00:33:51;7.90;;;7.03;;
870;SDS011;422;51.280;7.236;2023-05-10T00:36:18;7.37;;;6.63;;
870;SDS011;422;51.280;7.236;2023-05-10T00:38:45;8.10;;;7.10;;
870;SDS011;422;51.280;7.236;2023-05-10T00:41:14;8.20;;;7.20;;
870;SDS011;422;51.280;7.236;2023-05-10T00:43:42;9.33;;;8.03;;
870;SDS011;422;51.280;7.236;2023-05-10T00:46:09;8.77;;;7.30;;
870;SDS011;422;51.280;7.236;2023-05-10T00:48:36;7.57;;;6.77;;
870;SDS011;422;51.280;7.236;2023-05-10T00:51:03;8.70;;;7.43;;
870;SDS011;422;51.280;7.236;2023-05-10T00:53:31;8.67;;;7.77;;
870;SDS011;422;51.280;7.236;2023-05-10T00:55:58;9.83;;;8.90;;
870;SDS011;422;51.280;7.236;2023-05-10T00:58:28;9.43;;;8.50;;
870;SDS011;422;51.280;7.236;2023-05-10T01:00:56;9.13;;;8.23;;
870;SDS011;422;51.280;7.236;2023-05-10T01:03:24;9.73;;;8.23;;
870;SDS011;422;51.280;7.236;2023-05-10T01:05:51;8.93;;;8.00;;
870;SDS011;422;51.280;7.236;2023-05-10T01:08:19;9.40;;;8.07;;
870;SDS011;422;51.280;7.236;2023-05-10T01:10:46;7.90;;;7.07;;
870;SDS011;422;51.280;7.236;2023-05-10T01:13:16;8.77;;;7.13;;
870;SDS011;422;51.280;7.236;2023-05-10T01:15:53;8.60;;;7.70;;
870;SDS011;422;51.280;7.236;2023-05-10T01:18:22;10.17;;;7.40;;
870;SDS011;422;51.280;7.236;2023-05-10T01:20:57;8.07;;;7.27;;
870;SDS011;422;51.280;7.236;2023-05-10T01:23:36;8.10;;;7.30;;
870;SDS011;422;51.280;7.236;2023-05-10T01:26:23;8.77;;;7.20;;
870;SDS011;422;51.280;7.236;2023-05-10T01:29:11;8.87;;;7.70;;
870;SDS011;422;51.280;7.236;2023-05-10T01:31:57;8.70;;;7.20;;
870;SDS011;422;51.280;7.236;2023-05-10T01:34:34;9.30;;;8.00;;
870;SDS011;422;51.280;7.236;2023-05-10T01:37:09;8.60;;;7.53;;
870;SDS011;422;51.280;7.236;2023-05-10T01:39:49;10.10;;;7.40;;
870;SDS011;422;51.280;7.236;2023-05-10T01:42:25;9.60;;;7.80;;
870;SDS011;422;51.280;7.236;2023-05-10T01:45:00;11.30;;;8.77;;
870;SDS011;422;51.280;7.236;2023-05-10T01:47:35;10.03;;;9.00;;
870;SDS011;422;51.280;7.236;2023-05-10T01:50:08;9.80;;;8.27;;
870;SDS011;422;51.280;7.236;2023-05-10T01:52:40;10.40;;;9.27;;
870;SDS011;422;51.280;7.236;2023-05-10T01:55:13;10.97;;;9.47;;
870;SDS011;422;51.280;7.236;2023-05-10T01:57:46;12.30;;;9.60;;
870;SDS011;422;51.280;7.236;2023-05-10T02:00:16;10.63;;;9.53;;
870;SDS011;422;51.280;7.236;2023-05-10T02:02:47;10.27;;;9.20;;
870;SDS011;422;51.280;7.236;2023-05-10T02:05:16;9.93;;;8.93;;
870;SDS011;422;51.280;7.236;2023-05-10T02:07:45;10.67;;;9.30;;
870;SDS011;422;51.280;7.236;2023-05-10T02:10:13;9.97;;;8.87;;
870;SDS011;422;51.280;7.236;2023-05-10T02:12:43;11.57;;;9.33;;
870;SDS011;422;51.280;7.236;2023-05-10T02:15:15;9.53;;;7.80;;
870;SDS011;422;51.280;7.236;2023-05-10T02:17:44;9.03;;;8.00;;
870;SDS011;422;51.280;7.236;2023-05-10T02:20:15;8.30;;;7.50;;
870;SDS011;422;51.280;7.236;2023-05-10T02:22:45;7.60;;;6.80;;
870;SDS011;422;51.280;7.236;2023-05-10T02:25:15;7.37;;;6.67;;
870;SDS011;422;51.280;7.236;2023-05-10T02:27:44;8.00;;;7.20;;
870;SDS011;422;51.280;7.236;2023-05-10T02:30:13;7.83;;;6.60;;
870;SDS011;422;51.280;7.236;2023-05-10T02:32:41;6.87;;;6.20;;
870;SDS011;422;51.280;7.236;2023-05-10T02:35:10;7.07;;;6.37;;
870;SDS011;422;51.280;7.236;2023-05-10T02:37:38;7.30;;;6.60;;
870;SDS011;422;51.280;7.236;2023-05-10T02:40:07;7.00;;;6.40;;
870;SDS011;422;51.280;7.236;2023-05-10T02:42:37;8.60;;;7.30;;
870;SDS011;422;51.280;7.236;2023-05-10T02:45:10;7.40;;;6.60;;
870;SDS011;422;51.280;7.236;2023-05-10T02:47:39;7.50;;;6.70;;
870;SDS011;422;51.280;7.236;2023-05-10T02:50:07;7.63;;;6.33;;
870;SDS011;422;51.280;7.236;2023-05-10T02:52:38;7.60;;;6.80;;
870;SDS011;422;51.280;7.236;2023-05-10T02:55:07;8.73;;;7.83;;
870;SDS011;422;51.280;7.236;2023-05-10T02:57:39;8.23;;;7.43;;
870;SDS011;422;51.280;7.236;2023-05-10T03:00:09;9.20;;;8.30;;
870;SDS011;422;51.280;7.236;2023-05-10T03:02:37;8.63;;;7.80;;
870;SDS011;422;51.280;7.236;2023-05-10T03:05:05;9.60;;;8.50;;
870;SDS011;422;51.280;7.236;2023-05-10T03:07:32;10.73;;;9.63;;
870;SDS011;422;51.280;7.236;2023-05-10T03:10:01;9.63;;;8.70;;
870;SDS011;422;51.280;7.236;2023-05-10T03:12:32;9.70;;;8.80;;
870;SDS011;422;51.280;7.236;2023-05-10T03:15:10;9.63;;;8.60;;
870;SDS011;422;51.280;7.236;2023-05-10T03:17:46;10.80;;;9.70;;
870;SDS011;422;51.280;7.236;2023-05-10T03:20:21;11.60;;;10.37;;
870;SDS011;422;51.280;7.236;2023-05-10T03:22:53;13.53;;;12.10;;
870;SDS011;422;51.280;7.236;2023-05-10T03:25:27;12.90;;;10.73;;
870;SDS011;422;51.280;7.236;2023-05-10T03:27:56;12.73;;;11.43;;
870;SDS011;422;51.280;7.236;2023-05-10T03:30:25;14.43;;;12.97;;
870;SDS011;422;51.280;7.236;2023-05-10T03:32:53;14.90;;;12.87;;
870;SDS011;422;51.280;7.236;2023-05-10T03:35:22;13.93;;;12.47;;
870;SDS011;422;51.280;7.236;2023-05-10T03:37:50;14.43;;;12.30;;
870;SDS011;422;51.280;7.236;2023-05-10T03:40:17;13.50;;;11.30;;
870;SDS011;422;51.280;7.236;2023-05-10T03:42:46;13.67;;;12.27;;
870;SDS011;422;51.280;7.236;2023-05-10T03:45:13;12.33;;;11.03;;
870;SDS011;422;51.280;7.236;2023-05-10T03:47:40;13.30;;;11.80;;
870;SDS011;422;51.280;7.236;2023-05-10T03:50:07;19.53;;;11.33;;
870;SDS011;422;51.280;7.236;2023-05-10T03:52:35;11.90;;;10.70;;
870;SDS011;422;51.280;7.236;2023-05-10T03:55:04;14.00;;;12.50;;
870;SDS011;422;51.280;7.236;2023-05-10T03:57:33;12.90;;;10.90;;
870;SDS011;422;51.280;7.236;2023-05-10T04:00:02;11.40;;;10.20;;
870;SDS011;422;51.280;7.236;2023-05-10T04:02:30;13.17;;;11.77;;
870;SDS011;422;51.280;7.236;2023-05-10T04:04:57;11.70;;;10.50;;
870;SDS011;422;51.280;7.236;2023-05-10T04:07:24;13.30;;;10.80;;
870;SDS011;422;51.280;7.236;2023-05-10T04:09:51;13.30;;;10.83;;
870;SDS011;422;51.280;7.236;2023-05-10T04:12:19;15.97;;;12.20;;
870;SDS011;422;51.280;7.236;2023-05-10T04:14:46;15.60;;;14.00;;
870;SDS011;422;51.280;7.236;2023-05-10T04:17:15;16.60;;;14.70;;
870;SDS011;422;51.280;7.236;2023-05-10T04:19:42;19.80;;;15.10;;
870;SDS011;422;51.280;7.236;2023-05-10T04:22:09;17.60;;;15.70;;
870;SDS011;422;51.280;7.236;2023-05-10T04:24:36;17.87;;;15.70;;
870;SDS011;422;51.280;7.236;2023-05-10T04:27:03;19.50;;;16.50;;
870;SDS011;422;51.280;7.236;2023-05-10T04:29:31;18.90;;;16.67;;
870;SDS011;422;51.280;7.236;2023-05-10T04:31:58;17.90;;;15.57;;
870;SDS011;422;51.280;7.236;2023-05-10T04:34:26;20.30;;;16.30;;
870;SDS011;422;51.280;7.236;2023-05-10T04:36:53;20.20;;;15.90;;
870;SDS011;422;51.280;7.236;2023-05-10T04:39:21;18.53;;;15.37;;
870;SDS011;422;51.280;7.236;2023-05-10T04:41:48;22.30;;;17.40;;
870;SDS011;422;51.280;7.236;2023-05-10T04:44:15;21.87;;;17.57;;
870;SDS011;422;51.280;7.236;2023-05-10T04:46:42;18.10;;;16.10;;
870;SDS011;422;51.280;7.236;2023-05-10T04:49:09;21.60;;;16.93;;
870;SDS011;422;51.280;7.236;2023-05-10T04:51:38;21.93;;;17.67;;
870;SDS011;422;51.280;7.236;2023-05-10T04:54:05;26.07;;;20.43;;
870;SDS011;422;51.280;7.236;2023-05-10T04:56:32;21.00;;;18.03;;
870;SDS011;422;51.280;7.236;2023-05-10T04:58:59;28.20;;;22.00;;
870;SDS011;422;51.280;7.236;2023-05-10T05:01:27;26.57;;;20.53;;
870;SDS011;422;51.280;7.236;2023-05-10T05:03:54;31.10;;;23.20;;
870;SDS011;422;51.280;7.236;2023-05-10T05:06:21;33.30;;;23.40;;
870;SDS011;422;51.280;7.236;2023-05-10T05:08:51;32.67;;;23.87;;
870;SDS011;422;51.280;7.236;2023-05-10T05:11:18;31.70;;;24.10;;
870;SDS011;422;51.280;7.236;2023-05-10T05:13:46;34.83;;;25.80;;
870;SDS011;422;51.280;7.236;2023-05-10T05:16:13;32.43;;;24.30;;
870;SDS011;422;51.280;7.236;2023-05-10T05:18:40;30.53;;;23.20;;
870;SDS011;422;51.280;7.236;2023-05-10T05:21:16;31.53;;;24.57;;
870;SDS011;422;51.280;7.236;2023-05-10T05:23:45;32.70;;;23.20;;
870;SDS011;422;51.280;7.236;2023-05-10T05:26:14;33.73;;;23.63;;
870;SDS011;422;51.280;7.236;2023-05-10T05:28:41;33.43;;;22.97;;
870;SDS011;422;51.280;7.236;2023-05-10T05:31:08;32.80;;;24.33;;
870;SDS011;422;51.280;7.236;2023-05-10T05:33:36;37.23;;;26.53;;
870;SDS011;422;51.280;7.236;2023-05-10T05:36:03;35.80;;;25.47;;
870;SDS011;422;51.280;7.236;2023-05-10T05:38:32;35.03;;;25.30;;
870;SDS011;422;51.280;7.236;2023-05-10T05:41:02;36.33;;;25.13;;
870;SDS011;422;51.280;7.236;2023-05-10T05:43:30;35.53;;;24.80;;
870;SDS011;422;51.280;7.236;2023-05-10T05:45:58;32.43;;;22.93;;
870;SDS011;422;51.280;7.236;2023-05-10T05:48:25;33.00;;;23.57;;
870;SDS011;422;51.280;7.236;2023-05-10T05:50:54;38.47;;;24.13;;
870;SDS011;422;51.280;7.236;2023-05-10T05:53:22;34.37;;;24.30;;
870;SDS011;422;51.280;7.236;2023-05-10T05:55:52;37.37;;;24.93;;
870;SDS011;422;51.280;7.236;2023-05-10T05:58:20;36.40;;;24.73;;
870;SDS011;422;51.280;7.236;2023-05-10T06:00:49;31.50;;;22.63;;
870;SDS011;422;51.280;7.236;2023-05-10T06:03:17;48.03;;;24.40;;
870;SDS011;422;51.280;7.236;2023-05-10T06:05:44;36.50;;;23.10;;
870;SDS011;422;51.280;7.236;2023-05-10T06:08:11;31.57;;;23.30;;
870;SDS011;422;51.280;7.236;2023-05-10T06:10:38;33.60;;;24.50;;
870;SDS011;422;51.280;7.236;2023-05-10T06:13:06;31.37;;;22.57;;
870;SDS011;422;51.280;7.236;2023-05-10T06:15:33;35.70;;;24.80;;
870;SDS011;422;51.280;7.236;2023-05-10T06:18:02;34.20;;;25.73;;
870;SDS011;422;51.280;7.236;2023-05-10T06:20:29;31.27;;;22.93;;
870;SDS011;422;51.280;7.236;2023-05-10T06:22:57;29.83;;;22.50;;
870;SDS011;422;51.280;7.236;2023-05-10T06:25:25;36.93;;;23.40;;
870;SDS011;422;51.280;7.236;2023-05-10T06:27:52;35.20;;;22.57;;
870;SDS011;422;51.280;7.236;2023-05-10T06:30:23;30.47;;;20.93;;
870;SDS011;422;51.280;7.236;2023-05-10T06:32:53;30.77;;;20.83;;
870;SDS011;422;51.280;7.236;2023-05-10T06:35:22;29.80;;;21.07;;
870;SDS011;422;51.280;7.236;2023-05-10T06:37:49;22.50;;;18.90;;
870;SDS011;422;51.280;7.236;2023-05-10T06:40:17;24.83;;;20.03;;
870;SDS011;422;51.280;7.236;2023-05-10T06:42:45;26.87;;;20.40;;
870;SDS011;422;51.280;7.236;2023-05-10T06:45:12;27.57;;;20.67;;
870;SDS011;422;51.280;7.236;2023-05-10T06:47:40;26.40;;;19.90;;
870;SDS011;422;51.280;7.236;2023-05-10T06:50:08;25.20;;;19.80;;
870;SDS011;422;51.280;7.236;2023-05-10T06:52:37;31.43;;;22.80;;
870;SDS011;422;51.280;7.236;2023-05-10T06:55:05;31.80;;;22.03;;
870;SDS011;422;51.280;7.236;2023-05-10T06:57:33;22.60;;;19.33;;
870;SDS011;422;51.280;7.236;2023-05-10T07:00:01;24.13;;;18.50;;
870;SDS011;422;51.280;7.236;2023-05-10T07:02:30;19.70;;;16.73;;
870;SDS011;422;51.280;7.236;2023-05-10T07:04:57;20.90;;;18.20;;
870;SDS011;422;51.280;7.236;2023-05-10T07:07:25;20.47;;;17.50;;
870;SDS011;422;51.280;7.236;2023-05-10T07:09:53;23.10;;;18.87;;
870;SDS011;422;51.280;7.236;2023-05-10T07:12:21;20.83;;;17.40;;
870;SDS011;422;51.280;7.236;2023-05-10T07:14:48;19.93;;;17.53;;
870;SDS011;422;51.280;7.236;2023-05-10T07:17:16;19.30;;;16.50;;
870;SDS011;422;51.280;7.236;2023-05-10T07:19:43;23.90;;;17.93;;
870;SDS011;422;51.280;7.236;2023-05-10T07:22:10;23.20;;;15.90;;
870;SDS011;422;51.280;7.236;2023-05-10T07:24:38;23.23;;;16.83;;
870;SDS011;422;51.280;7.236;2023-05-10T07:27:07;20.77;;;15.87;;
870;SDS011;422;51.280;7.236;2023-05-10T07:29:34;23.30;;;18.47;;
870;SDS011;422;51.280;7.236;2023-05-10T07:32:02;27.50;;;19.13;;
870;SDS011;422;51.280;7.236;2023-05-10T07:34:29;22.60;;;18.90;;
870;SDS011;422;51.280;7.236;2023-05-10T07:36:57;21.63;;;18.03;;
870;SDS011;422;51.280;7.236;2023-05-10T07:39:25;24.93;;;19.00;;
870;SDS011;422;51.280;7.236;2023-05-10T07:41:52;27.97;;;19.53;;
870;SDS011;422;51.280;7.236;2023-05-10T07:44:21;23.53;;;20.23;;
870;SDS011;422;51.280;7.236;2023-05-10T07:46:48;24.70;;;19.43;;
870;SDS011;422;51.280;7.236;2023-05-10T07:49:16;24.60;;;18.60;;
870;SDS011;422;51.280;7.236;2023-05-10T07:51:43;21.73;;;18.33;;
870;SDS011;422;51.280;7.236;2023-05-10T07:54:10;26.73;;;20.53;;
870;SDS011;422;51.280;7.236;2023-05-10T07:56:37;25.83;;;20.13;;
870;SDS011;422;51.280;7.236;2023-05-10T07:59:09;25.40;;;19.30;;
870;SDS011;422;51.280;7.236;2023-05-10T08:01:42;23.87;;;19.57;;
870;SDS011;422;51.280;7.236;2023-05-10T08:04:09;23.67;;;18.70;;
870;SDS011;422;51.280;7.236;2023-05-10T08:06:36;23.20;;;17.37;;
870;SDS011;422;51.280;7.236;2023-05-10T08:09:03;21.40;;;17.30;;
870;SDS011;422;51.280;7.236;2023-05-10T08:11:31;20.23;;;15.03;;
870;SDS011;422;51.280;7.236;2023-05-10T08:13:58;20.83;;;15.20;;
870;SDS011;422;51.280;7.236;2023-05-10T08:16:25;16.13;;;14.10;;
870;SDS011;422;51.280;7.236;2023-05-10T08:18:55;14.13;;;12.50;;
870;SDS011;422;51.280;7.236;2023-05-10T08:21:22;15.60;;;12.03;;
870;SDS011;422;51.280;7.236;2023-05-10T08:23:49;14.43;;;11.90;;
870;SDS011;422;51.280;7.236;2023-05-10T08:26:16;13.90;;;12.30;;
870;SDS011;422;51.280;7.236;2023-05-10T08:28:44;14.03;;;12.23;;
870;SDS011;422;51.280;7.236;2023-05-10T08:31:11;12.80;;;11.23;;
870;SDS011;422;51.280;7.236;2023-05-10T08:33:38;13.73;;;12.23;;
870;SDS011;422;51.280;7.236;2023-05-10T08:36:07;14.60;;;12.77;;
870;SDS011;422;51.280;7.236;2023-05-10T08:38:34;15.40;;;12.07;;
870;SDS011;422;51.280;7.236;2023-05-10T08:41:02;14.20;;;11.77;;
870;SDS011;422;51.280;7.236;2023-05-10T08:43:29;14.60;;;11.90;;
870;SDS011;422;51.280;7.236;2023-05-10T08:45:59;14.10;;;12.37;;
870;SDS011;422;51.280;7.236;2023-05-10T08:48:27;14.30;;;12.80;;
870;SDS011;422;51.280;7.236;2023-05-10T08:50:56;13.90;;;12.10;;
870;SDS011;422;51.280;7.236;2023-05-10T08:53:28;13.43;;;11.90;;
870;SDS011;422;51.280;7.236;2023-05-10T08:55:57;17.73;;;12.53;;
870;SDS011;422;51.280;7.236;2023-05-10T08:58:24;16.30;;;12.93;;
870;SDS011;422;51.280;7.236;2023-05-10T09:00:52;18.60;;;14.30;;
870;SDS011;422;51.280;7.236;2023-05-10T09:03:19;17.33;;;14.60;;
870;SDS011;422;51.280;7.236;2023-05-10T09:05:47;20.83;;;16.70;;
870;SDS011;422;51.280;7.236;2023-05-10T09:08:15;16.57;;;14.10;;
870;SDS011;422;51.280;7.236;2023-05-10T09:10:46;20.60;;;14.07;;
870;SDS011;422;51.280;7.236;2023-05-10T09:13:15;14.03;;;12.57;;
870;SDS011;422;51.280;7.236;2023-05-10T09:15:43;16.67;;;12.20;;
870;SDS011;422;51.280;7.236;2023-05-10T09:18:11;14.63;;;11.57;;
870;SDS011;422;51.280;7.236;2023-05-10T09:20:39;13.57;;;11.20;;
870;SDS011;422;51.280;7.236;2023-05-10T09:23:06;20.73;;;12.20;;
870;SDS011;422;51.280;7.236;2023-05-10T09:25:34;14.20;;;10.63;;
870;SDS011;422;51.280;7.236;2023-05-10T09:28:07;12.40;;;10.83;;
870;SDS011;422;51.280;7.236;2023-05-10T09:30:35;14.93;;;12.77;;
870;SDS011;422;51.280;7.236;2023-05-10T09:33:02;19.13;;;14.80;;
870;SDS011;422;51.280;7.236;2023-05-10T09:35:30;19.57;;;15.67;;
870;SDS011;422;51.280;7.236;2023-05-10T09:37:59;21.43;;;15.37;;
870;SDS011;422;51.280;7.236;2023-05-10T09:40:29;17.30;;;14.50;;
870;SDS011;422;51.280;7.236;2023-05-10T09:42:58;18.97;;;15.67;;
870;SDS011;422;51.280;7.236;2023-05-10T09:45:28;20.50;;;17.70;;
870;SDS011;422;51.280;7.236;2023-05-10T09:47:56;20.80;;;16.80;;
870;SDS011;422;51.280;7.236;2023-05-10T09:50:24;26.77;;;17.63;;
870;SDS011;422;51.280;7.236;2023-05-10T09:52:53;17.70;;;15.37;;
870;SDS011;422;51.280;7.236;2023-05-10T09:55:23;20.43;;;15.60;;
870;SDS011;422;51.280;7.236;2023-05-10T09:57:58;20.10;;;16.37;;
870;SDS011;422;51.280;7.236;2023-05-10T10:00:28;22.30;;;17.00;;
870;SDS011;422;51.280;7.236;2023-05-10T10:03:01;20.80;;;16.80;;
870;SDS011;422;51.280;7.236;2023-05-10T10:05:29;20.97;;;17.03;;
870;SDS011;422;51.280;7.236;2023-05-10T10:07:56;19.23;;;15.20;;
870;SDS011;422;51.280;7.236;2023-05-10T10:10:24;18.80;;;15.90;;
870;SDS011;422;51.280;7.236;2023-05-10T10:12:51;19.70;;;15.50;;
870;SDS011;422;51.280;7.236;2023-05-10T10:15:19;20.50;;;16.10;;
870;SDS011;422;51.280;7.236;2023-05-10T10:17:49;23.00;;;18.33;;
870;SDS011;422;51.280;7.236;2023-05-10T10:20:17;27.37;;;20.43;;
870;SDS011;422;51.280;7.236;2023-05-10T10:22:46;22.30;;;18.10;;
870;SDS011;422;51.280;7.236;2023-05-10T10:25:14;22.23;;;18.30;;
870;SDS011;422;51.280;7.236;2023-05-10T10:27:44;26.43;;;19.40;;
870;SDS011;422;51.280;7.236;2023-05-10T10:30:21;24.30;;;19.50;;
870;SDS011;422;51.280;7.236;2023-05-10T10:32:59;26.53;;;20.23;;
870;SDS011;422;51.280;7.236;2023-05-10T10:35:37;26.80;;;20.50;;
870;SDS011;422;51.280;7.236;2023-05-10T10:38:05;30.67;;;21.60;;
870;SDS011;422;51.280;7.236;2023-05-10T10:40:34;25.10;;;19.97;;
870;SDS011;422;51.280;7.236;2023-05-10T10:43:23;22.43;;;18.50;;
870;SDS011;422;51.280;7.236;2023-05-10T10:48:43;22.43;;;17.77;;
870;SDS011;422;51.280;7.236;2023-05-10T10:51:14;27.90;;;18.93;;
870;SDS011;422;51.280;7.236;2023-05-10T10:53:42;23.93;;;17.37;;
870;SDS011;422;51.280;7.236;2023-05-10T10:56:10;20.73;;;17.37;;
870;SDS011;422;51.280;7.236;2023-05-10T10:58:40;19.53;;;15.80;;
870;SDS011;422;51.280;7.236;2023-05-10T11:01:14;18.43;;;14.30;;
870;SDS011;422;51.280;7.236;2023-05-10T11:06:43;21.10;;;15.37;;
870;SDS011;422;51.280;7.236;2023-05-10T11:09:11;16.70;;;13.50;;
870;SDS011;422;51.280;7.236;2023-05-10T11:11:48;16.33;;;14.37;;
870;SDS011;422;51.280;7.236;2023-05-10T11:14:19;16.83;;;14.13;;
870;SDS011;422;51.280;7.236;2023-05-10T11:16:47;18.63;;;13.53;;
870;SDS011;422;51.280;7.236;2023-05-10T11:19:16;15.80;;;12.90;;
870;SDS011;422;51.280;7.236;2023-05-10T11:21:45;17.10;;;14.23;;
870;SDS011;422;51.280;7.236;2023-05-10T11:24:14;16.47;;;13.73;;
870;SDS011;422;51.280;7.236;2023-05-10T11:26:42;14.80;;;13.13;;
870;SDS011;422;51.280;7.236;2023-05-10T11:29:09;16.63;;;14.40;;
870;SDS011;422;51.280;7.236;2023-05-10T11:31:42;18.10;;;14.20;;
870;SDS011;422;51.280;7.236;2023-05-10T11:34:10;17.70;;;15.10;;
870;SDS011;422;51.280;7.236;2023-05-10T11:36:40;15.43;;;13.80;;
870;SDS011;422;51.280;7.236;2023-05-10T11:39:08;16.50;;;14.70;;
870;SDS011;422;51.280;7.236;2023-05-10T11:41:36;20.13;;;15.80;;
870;SDS011;422;51.280;7.236;2023-05-10T11:44:04;17.70;;;15.90;;
870;SDS011;422;51.280;7.236;2023-05-10T11:46:31;16.80;;;13.23;;
870;SDS011;422;51.280;7.236;2023-05-10T11:48:59;17.10;;;13.73;;
870;SDS011;422;51.280;7.236;2023-05-10T11:51:29;16.73;;;12.07;;
870;SDS011;422;51.280;7.236;2023-05-10T11:54:00;17.17;;;14.30;;
870;SDS011;422;51.280;7.236;2023-05-10T11:56:32;15.73;;;14.00;;
870;SDS011;422;51.280;7.236;2023-05-10T11:58:59;15.00;;;13.40;;
870;SDS011;422;51.280;7.236;2023-05-10T12:01:27;13.53;;;12.13;;
870;SDS011;422;51.280;7.236;2023-05-10T12:03:55;14.17;;;12.60;;
870;SDS011;422;51.280;7.236;2023-05-10T12:06:26;14.27;;;11.60;;
870;SDS011;422;51.280;7.236;2023-05-10T12:08:56;16.90;;;13.57;;
870;SDS011;422;51.280;7.236;2023-05-10T12:11:26;13.53;;;10.63;;
870;SDS011;422;51.280;7.236;2023-05-10T12:13:55;13.50;;;12.20;;
870;SDS011;422;51.280;7.236;2023-05-10T12:16:23;12.83;;;11.63;;
870;SDS011;422;51.280;7.236;2023-05-10T12:18:52;14.20;;;12.90;;
870;SDS011;422;51.280;7.236;2023-05-10T12:21:21;15.90;;;14.20;;
870;SDS011;422;51.280;7.236;2023-05-10T12:23:50;16.00;;;14.23;;
870;SDS011;422;51.280;7.236;2023-05-10T12:26:18;15.63;;;14.17;;
870;SDS011;422;51.280;7.236;2023-05-10T12:28:49;16.73;;;15.00;;
870;SDS011;422;51.280;7.236;2023-05-10T12:31:16;14.67;;;13.13;;
870;SDS011;422;51.280;7.236;2023-05-10T12:33:44;16.57;;;14.87;;
870;SDS011;422;51.280;7.236;2023-05-10T12:36:13;19.23;;;16.60;;
870;SDS011;422;51.280;7.236;2023-05-10T12:38:41;20.87;;;16.27;;
870;SDS011;422;51.280;7.236;2023-05-10T12:41:09;19.00;;;15.80;;
870;SDS011;422;51.280;7.236;2023-05-10T12:43:38;17.23;;;15.40;;
870;SDS011;422;51.280;7.236;2023-05-10T12:46:08;19.37;;;16.83;;
870;SDS011;422;51.280;7.236;2023-05-10T12:48:37;19.03;;;16.97;;
870;SDS011;422;51.280;7.236;2023-05-10T12:51:05;24.90;;;19.20;;
870;SDS011;422;51.280;7.236;2023-05-10T12:53:34;19.77;;;17.53;;
870;SDS011;422;51.280;7.236;2023-05-10T12:56:02;22.87;;;17.60;;
870;SDS011;422;51.280;7.236;2023-05-10T12:58:30;20.30;;;18.30;;
870;SDS011;422;51.280;7.236;2023-05-10T13:00:57;21.23;;;17.37;;
870;SDS011;422;51.280;7.236;2023-05-10T13:03:26;24.93;;;19.97;;
870;SDS011;422;51.280;7.236;2023-05-10T13:05:53;21.27;;;18.50;;
870;SDS011;422;51.280;7.236;2023-05-10T13:08:21;19.77;;;17.20;;
870;SDS011;422;51.280;7.236;2023-05-10T13:10:48;19.53;;;17.53;;
870;SDS011;422;51.280;7.236;2023-05-10T13:13:15;18.57;;;16.57;;
870;SDS011;422;51.280;7.236;2023-05-10T13:15:43;16.80;;;15.00;;
870;SDS011;422;51.280;7.236;2023-05-10T13:18:10;19.63;;;17.60;;
870;SDS011;422;51.280;7.236;2023-05-10T13:20:39;18.30;;;15.90;;
870;SDS011;422;51.280;7.236;2023-05-10T13:23:08;17.23;;;15.50;;
870;SDS011;422;51.280;7.236;2023-05-10T13:25:35;18.10;;;16.37;;
870;SDS011;422;51.280;7.236;2023-05-10T13:28:02;19.50;;;15.10;;
870;SDS011;422;51.280;7.236;2023-05-10T13:30:30;18.57;;;15.40;;
870;SDS011;422;51.280;7.236;2023-05-10T13:32:57;15.97;;;14.40;;
870;SDS011;422;51.280;7.236;2023-05-10T13:35:24;14.87;;;13.37;;
870;SDS011;422;51.280;7.236;2023-05-10T13:37:54;16.13;;;14.53;;
870;SDS011;422;51.280;7.236;2023-05-10T13:40:23;15.30;;;13.70;;
870;SDS011;422;51.280;7.236;2023-05-10T13:42:50;16.20;;;14.50;;
870;SDS011;422;51.280;7.236;2023-05-10T13:45:18;15.70;;;13.93;;
870;SDS011;422;51.280;7.236;2023-05-10T13:47:45;15.67;;;13.97;;
870;SDS011;422;51.280;7.236;2023-05-10T13:50:13;17.77;;;16.10;;
870;SDS011;422;51.280;7.236;2023-05-10T13:52:40;17.40;;;14.40;;
870;SDS011;422;51.280;7.236;2023-05-10T13:55:12;19.10;;;16.37;;
870;SDS011;422;51.280;7.236;2023-05-10T13:57:39;17.77;;;15.97;;
870;SDS011;422;51.280;7.236;2023-05-10T14:00:08;16.80;;;15.03;;
870;SDS011;422;51.280;7.236;2023-05-10T14:09:02;16.23;;;14.60;;
870;SDS011;422;51.280;7.236;2023-05-10T14:11:31;18.43;;;15.57;;
870;SDS011;422;51.280;7.236;2023-05-10T14:13:58;20.63;;;18.20;;
870;SDS011;422;51.280;7.236;2023-05-10T14:16:25;20.13;;;17.90;;
870;SDS011;422;51.280;7.236;2023-05-10T14:18:53;19.27;;;17.37;;
870;SDS011;422;51.280;7.236;2023-05-10T14:21:20;19.93;;;17.43;;
870;SDS011;422;51.280;7.236;2023-05-10T14:23:48;22.70;;;17.93;;
870;SDS011;422;51.280;7.236;2023-05-10T14:26:15;22.33;;;18.50;;
870;SDS011;422;51.280;7.236;2023-05-10T14:28:44;21.67;;;17.73;;
870;SDS011;422;51.280;7.236;2023-05-10T14:31:11;21.23;;;19.00;;
870;SDS011;422;51.280;7.236;2023-05-10T14:33:39;20.13;;;17.40;;
870;SDS011;422;51.280;7.236;2023-05-10T14:36:06;23.00;;;18.03;;
870;SDS011;422;51.280;7.236;2023-05-10T14:38:34;19.47;;;17.40;;
870;SDS011;422;51.280;7.236;2023-05-10T14:41:01;18.70;;;16.80;;
870;SDS011;422;51.280;7.236;2023-05-10T14:43:28;17.33;;;15.30;;
870;SDS011;422;51.280;7.236;2023-05-10T14:45:57;18.93;;;17.13;;
870;SDS011;422;51.280;7.236;2023-05-10T14:48:25;17.87;;;16.10;;
870;SDS011;422;51.280;7.236;2023-05-10T14:50:52;15.80;;;14.30;;
870;SDS011;422;51.280;7.236;2023-05-10T14:53:19;17.20;;;15.50;;
870;SDS011;422;51.280;7.236;2023-05-10T14:55:46;18.07;;;16.37;;
870;SDS011;422;51.280;7.236;2023-05-10T14:58:13;17.60;;;15.83;;
870;SDS011;422;51.280;7.236;2023-05-10T15:00:41;18.90;;;16.90;;
870;SDS011;422;51.280;7.236;2023-05-10T15:03:10;20.03;;;17.53;;
870;SDS011;422;51.280;7.236;2023-05-10T15:05:37;16.90;;;15.10;;
870;SDS011;422;51.280;7.236;2023-05-10T15:08:05;17.27;;;15.50;;
870;SDS011;422;51.280;7.236;2023-05-10T15:10:32;18.80;;;16.90;;
870;SDS011;422;51.280;7.236;2023-05-10T15:13:00;17.20;;;15.53;;
870;SDS011;422;51.280;7.236;2023-05-10T15:15:27;18.80;;;16.33;;
870;SDS011;422;51.280;7.236;2023-05-10T15:17:54;18.40;;;16.50;;
870;SDS011;422;51.280;7.236;2023-05-10T15:20:23;19.70;;;17.70;;
870;SDS011;422;51.280;7.236;2023-05-10T15:22:50;19.10;;;17.30;;
870;SDS011;422;51.280;7.236;2023-05-10T15:25:18;19.37;;;17.33;;
870;SDS011;422;51.280;7.236;2023-05-10T15:27:45;17.77;;;16.07;;
870;SDS011;422;51.280;7.236;2023-05-10T15:30:12;18.87;;;16.47;;
870;SDS011;422;51.280;7.236;2023-05-10T15:32:40;19.43;;;15.80;;
870;SDS011;422;51.280;7.236;2023-05-10T15:35:08;18.40;;;16.60;;
870;SDS011;422;51.280;7.236;2023-05-10T15:37:37;16.33;;;14.53;;
870;SDS011;422;51.280;7.236;2023-05-10T15:40:05;14.27;;;12.63;;
870;SDS011;422;51.280;7.236;2023-05-10T15:42:33;15.83;;;14.27;;